createdAt,value
2022-10-18T00:00:05.926Z,64.88
2022-10-18T00:02:32.440Z,42.50
2022-10-18T00:04:58.888Z,52.00
2022-10-18T00:07:25.295Z,47.90
2022-10-18T00:09:51.681Z,59.92
2022-10-18T00:12:18.119Z,56.97
2022-10-18T00:14:44.513Z,82.07
2022-10-18T00:17:10.864Z,43.40
2022-10-18T00:19:37.319Z,52.08
2022-10-18T00:22:03.685Z,50.40
2022-10-18T00:24:30.042Z,40.28
2022-10-18T00:26:56.421Z,38.22
2022-10-18T00:29:22.839Z,50.70
2022-10-18T00:31:49.265Z,56.85
2022-10-18T00:34:16.756Z,49.25
2022-10-18T00:36:44.393Z,41.15
2022-10-18T00:39:16.729Z,50.88
2022-10-18T00:41:43.681Z,52.50
2022-10-18T00:44:12.845Z,39.47
2022-10-18T00:46:42.390Z,33.33
2022-10-18T00:49:16.407Z,38.63
2022-10-18T00:51:46.498Z,42.75
2022-10-18T00:54:14.672Z,60.20
2022-10-18T00:56:41.519Z,51.40
2022-10-18T00:59:08.250Z,57.38
2022-10-18T01:01:34.681Z,49.28
2022-10-18T01:04:01.307Z,37.28
2022-10-18T01:06:28.887Z,38.43
2022-10-18T01:09:16.201Z,48.65
2022-10-18T01:11:45.329Z,50.40
2022-10-18T01:14:30.093Z,58.65
2022-10-18T01:17:03.914Z,50.92
2022-10-18T01:19:52.768Z,41.50
2022-10-18T01:25:43.035Z,37.38
2022-10-18T01:28:15.599Z,56.57
2022-10-18T01:30:51.446Z,48.40
2022-10-18T01:33:32.043Z,44.72
2022-10-18T01:36:05.794Z,37.42
2022-10-18T01:38:34.601Z,34.75
2022-10-18T01:41:03.191Z,30.50
2022-10-18T01:43:31.649Z,43.80
2022-10-18T01:46:00.576Z,49.28
2022-10-18T01:48:27.161Z,42.75
2022-10-18T01:50:53.570Z,39.80
2022-10-18T01:53:31.611Z,35.90
2022-10-18T01:56:09.965Z,41.17
2022-10-18T01:58:56.945Z,39.80
2022-10-18T02:01:41.923Z,45.10
2022-10-18T02:04:42.107Z,44.30
2022-10-18T02:07:31.375Z,67.93
2022-10-18T02:10:10.837Z,67.97
2022-10-18T02:12:41.508Z,57.17
2022-10-18T02:15:09.739Z,45.20
2022-10-18T02:17:38.047Z,48.58
2022-10-18T02:20:08.742Z,58.50
2022-10-18T02:22:36.885Z,44.50
2022-10-18T02:25:09.759Z,57.88
2022-10-18T02:27:38.038Z,45.22
2022-10-18T02:30:05.610Z,44.88
2022-10-18T02:32:37.320Z,45.83
2022-10-18T02:35:09.885Z,48.28
2022-10-18T02:37:39.863Z,52.50
2022-10-18T02:40:09.009Z,54.53
2022-10-18T02:42:38.093Z,53.97
2022-10-18T02:45:06.297Z,55.60
2022-10-18T02:47:32.861Z,65.28
2022-10-18T02:49:59.538Z,49.65
2022-10-18T02:52:25.993Z,66.25
2022-10-18T02:54:52.402Z,60.40
2022-10-18T02:57:18.790Z,57.33
2022-10-18T02:59:45.164Z,57.90
2022-10-18T03:02:11.653Z,50.15
2022-10-18T03:04:38.020Z,53.65
2022-10-18T03:07:04.398Z,48.88
2022-10-18T03:09:30.804Z,51.67
2022-10-18T03:11:57.478Z,49.63
2022-10-18T03:14:23.876Z,53.65
2022-10-18T03:16:50.294Z,39.92
2022-10-18T03:19:16.742Z,47.97
2022-10-18T03:21:43.126Z,50.17
2022-10-18T03:24:09.559Z,48.85
2022-10-18T03:26:35.923Z,42.10
2022-10-18T03:29:02.446Z,43.50
2022-10-18T03:34:00.295Z,45.50
2022-10-18T03:36:26.655Z,49.92
2022-10-18T03:38:53.058Z,43.78
2022-10-18T03:41:19.431Z,42.67
2022-10-18T03:43:45.824Z,49.13
2022-10-18T03:46:12.540Z,51.37
2022-10-18T03:48:39.095Z,45.28
2022-10-18T03:51:05.575Z,76.05
2022-10-18T03:53:31.949Z,63.65
2022-10-18T03:55:58.476Z,65.07
2022-10-18T03:58:25.014Z,56.73
2022-10-18T04:00:53.009Z,69.75
2022-10-18T04:03:21.164Z,64.65
2022-10-18T04:05:48.415Z,63.80
2022-10-18T04:08:15.557Z,62.35
2022-10-18T04:10:42.198Z,62.43
2022-10-18T04:13:08.928Z,68.90
2022-10-18T04:15:35.364Z,63.15
2022-10-18T04:18:02.049Z,76.97
2022-10-18T04:20:28.558Z,95.75
2022-10-18T04:22:54.966Z,71.13
2022-10-18T04:25:22.162Z,86.45
2022-10-18T04:27:48.740Z,96.72
2022-10-18T04:30:15.287Z,83.05
2022-10-18T04:32:41.736Z,100.30
2022-10-18T04:35:09.458Z,104.53
2022-10-18T04:37:35.825Z,68.60
2022-10-18T04:40:02.717Z,80.95
2022-10-18T04:42:29.130Z,73.95
2022-10-18T04:44:55.517Z,69.72
2022-10-18T04:47:22.002Z,105.60
2022-10-18T04:49:48.352Z,75.00
2022-10-18T04:52:14.730Z,76.18
2022-10-18T04:54:41.090Z,86.90
2022-10-18T04:57:07.467Z,79.60
2022-10-18T04:59:33.892Z,74.23
2022-10-18T05:02:00.410Z,85.50
2022-10-18T05:04:26.896Z,76.90
2022-10-18T05:06:53.267Z,102.13
2022-10-18T05:09:19.666Z,86.07
2022-10-18T05:11:46.079Z,85.23
2022-10-18T05:14:12.514Z,100.15
2022-10-18T05:16:38.889Z,104.78
2022-10-18T05:19:05.875Z,66.25
2022-10-18T05:21:32.601Z,64.18
2022-10-18T05:23:58.986Z,83.33
2022-10-18T05:26:25.373Z,75.40
2022-10-18T05:28:51.839Z,80.07
2022-10-18T05:31:18.338Z,90.47
2022-10-18T05:33:44.724Z,85.20
2022-10-18T05:36:11.298Z,87.30
2022-10-18T05:38:42.102Z,72.43
2022-10-18T05:41:09.682Z,99.43
2022-10-18T05:43:36.078Z,71.15
2022-10-18T05:46:02.552Z,63.70
2022-10-18T05:48:28.940Z,74.17
2022-10-18T05:50:58.411Z,66.68
2022-10-18T05:53:36.334Z,68.65
2022-10-18T05:56:04.068Z,63.08
2022-10-18T05:58:30.644Z,76.30
2022-10-18T06:01:01.300Z,65.67
2022-10-18T06:03:27.957Z,71.53
2022-10-18T06:06:03.145Z,57.45
2022-10-18T06:08:30.075Z,58.55
2022-10-18T06:10:57.001Z,54.53
2022-10-18T06:13:23.675Z,68.77
2022-10-18T06:15:50.355Z,67.47
2022-10-18T06:18:16.785Z,62.13
2022-10-18T06:20:43.203Z,66.30
2022-10-18T06:23:09.623Z,60.95
2022-10-18T06:25:36.048Z,67.23
2022-10-18T06:28:06.011Z,53.88
2022-10-18T06:30:34.378Z,52.20
2022-10-18T06:33:01.290Z,53.85
2022-10-18T06:35:27.789Z,59.22
2022-10-18T06:37:54.148Z,58.77
2022-10-18T06:40:20.532Z,50.95
2022-10-18T06:42:55.202Z,55.75
2022-10-18T06:45:27.108Z,56.10
2022-10-18T06:47:53.504Z,82.00
2022-10-18T06:50:19.952Z,93.30
2022-10-18T06:52:46.301Z,78.72
2022-10-18T06:55:12.788Z,88.40
2022-10-18T06:57:39.234Z,76.38
2022-10-18T07:00:05.999Z,95.65
2022-10-18T07:02:32.532Z,101.63
2022-10-18T07:04:59.268Z,91.50
2022-10-18T07:07:25.700Z,80.07
2022-10-18T07:09:52.145Z,98.53
2022-10-18T07:12:18.531Z,83.03
2022-10-18T07:14:46.265Z,103.80
2022-10-18T07:17:12.683Z,104.22
2022-10-18T07:19:39.085Z,86.95
2022-10-18T07:22:05.458Z,81.50
2022-10-18T07:27:03.268Z,80.93
2022-10-18T07:29:29.728Z,110.80
2022-10-18T07:31:56.117Z,81.20
2022-10-18T07:34:22.521Z,76.18
2022-10-18T07:36:48.922Z,54.95
2022-10-18T07:39:16.284Z,78.43
2022-10-18T07:41:42.764Z,52.97
2022-10-18T07:44:09.141Z,59.83
2022-10-18T07:46:35.790Z,108.93
2022-10-18T07:49:02.200Z,45.63
2022-10-18T07:51:28.809Z,45.93
2022-10-18T07:53:55.182Z,32.65
2022-10-18T07:56:22.219Z,33.40
2022-10-18T07:58:53.732Z,26.92
2022-10-18T08:01:21.822Z,29.63
2022-10-18T08:03:48.971Z,34.43
2022-10-18T08:06:20.368Z,39.97
2022-10-18T08:08:46.909Z,34.80
2022-10-18T08:11:19.134Z,35.47
2022-10-18T08:13:46.360Z,33.85
2022-10-18T08:16:15.458Z,25.27
2022-10-18T08:18:42.422Z,26.05
2022-10-18T08:21:11.393Z,25.90
2022-10-18T08:23:39.194Z,31.13
2022-10-18T08:26:09.966Z,28.85
2022-10-18T08:28:37.173Z,27.83
2022-10-18T08:31:15.596Z,22.98
2022-10-18T08:33:41.951Z,23.70
2022-10-18T08:36:12.066Z,22.13
2022-10-18T08:38:40.457Z,20.50
2022-10-18T08:41:28.480Z,21.40
2022-10-18T08:44:13.709Z,23.05
2022-10-18T08:46:44.816Z,21.17
2022-10-18T08:49:26.733Z,19.65
2022-10-18T08:51:53.973Z,22.77
2022-10-18T08:55:02.525Z,19.03
2022-10-18T08:57:30.975Z,18.00
2022-10-18T08:59:57.579Z,20.45
2022-10-18T09:02:48.445Z,20.58
2022-10-18T09:05:33.916Z,18.63
2022-10-18T09:08:18.454Z,17.70
2022-10-18T09:11:07.810Z,16.50
2022-10-18T09:14:01.493Z,15.07
2022-10-18T09:16:51.960Z,15.25
2022-10-18T09:19:31.176Z,16.00
2022-10-18T09:22:15.842Z,15.33
2022-10-18T09:25:00.297Z,15.93
2022-10-18T09:27:49.186Z,14.25
2022-10-18T09:30:26.584Z,9.65
2022-10-18T09:33:06.256Z,13.07
2022-10-18T09:35:52.330Z,12.07
2022-10-18T09:38:26.717Z,12.50
2022-10-18T09:40:58.299Z,13.15
2022-10-18T09:43:42.251Z,18.10
2022-10-18T09:46:09.265Z,31.50
2022-10-18T09:49:04.434Z,42.30
2022-10-18T09:51:36.827Z,41.40
2022-10-18T09:54:24.586Z,36.10
2022-10-18T09:56:57.781Z,32.72
2022-10-18T09:59:39.784Z,34.83
2022-10-18T10:02:07.277Z,32.23
2022-10-18T10:04:33.747Z,29.40
2022-10-18T10:07:01.547Z,30.67
2022-10-18T10:09:41.417Z,35.35
2022-10-18T10:12:30.704Z,37.70
2022-10-18T10:15:16.756Z,37.47
2022-10-18T10:17:43.380Z,28.70
2022-10-18T10:20:21.456Z,30.27
2022-10-18T10:22:49.859Z,30.33
2022-10-18T10:25:23.364Z,31.48
2022-10-18T10:27:50.436Z,23.23
2022-10-18T10:30:30.141Z,25.35
2022-10-18T10:32:57.168Z,20.23
2022-10-18T10:35:53.231Z,23.52
2022-10-18T10:38:25.678Z,25.90
2022-10-18T10:40:52.775Z,22.73
2022-10-18T10:43:39.380Z,26.90
2022-10-18T10:46:12.913Z,28.08
2022-10-18T10:49:09.591Z,21.60
2022-10-18T10:51:42.092Z,17.60
2022-10-18T10:54:22.188Z,18.13
2022-10-18T10:57:00.416Z,24.13
2022-10-18T10:59:31.659Z,16.27
2022-10-18T11:02:26.026Z,12.82
2022-10-18T11:04:54.946Z,10.80
2022-10-18T11:07:36.476Z,10.33
2022-10-18T11:10:13.490Z,11.35
2022-10-18T11:12:49.147Z,10.63
2022-10-18T11:15:38.991Z,10.85
2022-10-18T11:18:19.000Z,10.45
2022-10-18T11:21:03.797Z,9.33
2022-10-18T11:23:35.499Z,10.30
2022-10-18T11:26:10.872Z,10.43
2022-10-18T11:28:56.077Z,9.18
2022-10-18T11:32:16.574Z,9.20
2022-10-18T11:34:42.913Z,9.33
2022-10-18T11:37:37.509Z,8.80
2022-10-18T11:40:23.545Z,9.00
2022-10-18T11:43:00.564Z,9.70
2022-10-18T11:45:49.879Z,10.52
2022-10-18T11:48:35.561Z,8.23
2022-10-18T11:51:13.072Z,10.93
2022-10-18T11:54:06.698Z,9.93
2022-10-18T11:57:15.589Z,10.32
2022-10-18T12:00:23.519Z,9.38
2022-10-18T12:03:14.326Z,9.03
2022-10-18T12:05:44.439Z,10.95
2022-10-18T12:08:21.312Z,9.30
2022-10-18T12:11:04.721Z,11.45
2022-10-18T12:13:41.078Z,7.70
2022-10-18T12:16:09.286Z,10.43
2022-10-18T12:18:45.591Z,9.93
2022-10-18T12:21:13.004Z,10.60
2022-10-18T12:23:50.928Z,11.30
2022-10-18T12:26:17.876Z,11.20
2022-10-18T12:29:02.836Z,13.20
2022-10-18T12:31:39.052Z,15.18
2022-10-18T12:34:23.537Z,11.10
2022-10-18T12:37:12.207Z,8.57
2022-10-18T12:40:08.723Z,14.15
2022-10-18T12:42:40.544Z,9.60
2022-10-18T12:45:19.756Z,8.60
2022-10-18T12:47:46.427Z,10.95
2022-10-18T12:50:28.144Z,9.75
2022-10-18T12:53:18.184Z,10.10
2022-10-18T12:55:50.247Z,9.13
2022-10-18T12:58:32.582Z,8.45
2022-10-18T13:01:01.196Z,8.32
2022-10-18T13:03:29.086Z,10.30
2022-10-18T13:06:00.721Z,9.50
2022-10-18T13:08:28.179Z,9.20
2022-10-18T13:11:09.912Z,10.68
2022-10-18T13:14:09.105Z,8.43
2022-10-18T13:16:57.141Z,8.20
2022-10-18T13:19:44.931Z,10.43
2022-10-18T13:22:25.492Z,10.47
2022-10-18T13:25:10.176Z,9.77
2022-10-18T13:27:44.616Z,10.60
2022-10-18T13:30:17.503Z,8.90
2022-10-18T13:32:58.734Z,11.48
2022-10-18T13:35:43.974Z,12.80
2022-10-18T13:38:31.760Z,9.35
2022-10-18T13:41:06.105Z,10.30
2022-10-18T13:43:54.147Z,9.65
2022-10-18T13:46:32.668Z,8.45
2022-10-18T13:49:05.253Z,7.97
2022-10-18T13:51:42.646Z,8.35
2022-10-18T13:54:18.256Z,12.07
2022-10-18T13:57:10.870Z,8.95
2022-10-18T13:59:55.998Z,8.80
2022-10-18T14:02:51.091Z,9.30
2022-10-18T14:05:27.254Z,9.60
2022-10-18T14:08:04.735Z,11.55
2022-10-18T14:11:02.088Z,10.57
2022-10-18T14:13:38.910Z,10.57
2022-10-18T14:16:29.806Z,8.77
2022-10-18T14:19:08.547Z,13.80
2022-10-18T14:21:39.943Z,9.50
2022-10-18T14:24:26.516Z,9.90
2022-10-18T14:27:11.443Z,10.02
2022-10-18T14:29:37.897Z,9.83
2022-10-18T14:32:09.231Z,8.48
2022-10-18T14:34:35.939Z,10.15
2022-10-18T14:37:02.415Z,7.78
2022-10-18T14:39:29.011Z,8.15
2022-10-18T14:41:57.065Z,8.30
2022-10-18T14:44:29.326Z,9.70
2022-10-18T14:46:55.689Z,7.78
2022-10-18T14:49:22.130Z,9.23
2022-10-18T14:51:52.270Z,6.78
2022-10-18T14:54:25.005Z,8.47
2022-10-18T14:56:54.167Z,8.70
2022-10-18T14:59:23.548Z,9.32
2022-10-18T15:02:02.647Z,7.53
2022-10-18T15:04:29.705Z,9.80
2022-10-18T15:06:56.478Z,10.10
2022-10-18T15:09:24.226Z,7.90
2022-10-18T15:11:51.714Z,10.15
2022-10-18T15:14:19.808Z,8.55
2022-10-18T15:16:47.345Z,8.95
2022-10-18T15:19:13.706Z,8.10
2022-10-18T15:21:59.130Z,9.20
2022-10-18T15:24:37.558Z,8.63
2022-10-18T15:27:20.810Z,9.75
2022-10-18T15:29:47.303Z,9.70
2022-10-18T15:32:30.583Z,8.17
2022-10-18T15:35:08.916Z,7.68
2022-10-18T15:37:47.115Z,9.48
2022-10-18T15:40:33.735Z,7.45
2022-10-18T15:43:03.128Z,7.68
2022-10-18T15:45:32.719Z,11.73
2022-10-18T15:48:08.308Z,10.27
2022-10-18T15:50:40.361Z,8.75
2022-10-18T15:53:21.923Z,10.55
2022-10-18T15:56:00.983Z,6.72
2022-10-18T15:58:35.167Z,8.53
2022-10-18T16:01:02.026Z,10.32
2022-10-18T16:03:28.700Z,7.85
2022-10-18T16:05:59.622Z,7.05
2022-10-18T16:08:29.820Z,11.88
2022-10-18T16:10:58.191Z,9.73
2022-10-18T16:13:25.469Z,7.57
2022-10-18T16:15:52.194Z,9.18
2022-10-18T16:18:20.170Z,10.23
2022-10-18T16:20:47.731Z,9.30
2022-10-18T16:23:16.191Z,8.87
2022-10-18T16:25:42.739Z,9.27
2022-10-18T16:28:14.035Z,7.57
2022-10-18T16:30:42.263Z,10.10
2022-10-18T16:33:08.639Z,9.00
2022-10-18T16:35:35.100Z,9.30
2022-10-18T16:38:01.871Z,7.30
2022-10-18T16:40:28.290Z,10.27
2022-10-18T16:42:55.093Z,9.50
2022-10-18T16:45:21.552Z,9.40
2022-10-18T16:47:47.973Z,10.27
2022-10-18T16:50:17.941Z,9.82
2022-10-18T16:52:44.357Z,10.32
2022-10-18T16:55:11.764Z,7.28
2022-10-18T16:57:38.134Z,9.27
2022-10-18T17:00:05.382Z,8.57
2022-10-18T17:02:32.121Z,9.35
2022-10-18T17:04:58.896Z,11.00
2022-10-18T17:07:25.420Z,7.85
2022-10-18T17:09:51.863Z,11.55
2022-10-18T17:12:18.254Z,14.20
2022-10-18T17:14:44.670Z,8.95
2022-10-18T17:17:12.376Z,8.00
2022-10-18T17:19:38.783Z,6.85
2022-10-18T17:22:05.166Z,7.88
2022-10-18T17:24:31.625Z,8.73
2022-10-18T17:26:58.115Z,9.85
2022-10-18T17:29:24.495Z,10.35
2022-10-18T17:31:50.970Z,7.43
2022-10-18T17:34:20.947Z,8.02
2022-10-18T17:36:47.901Z,7.77
2022-10-18T17:39:14.384Z,10.73
2022-10-18T17:41:40.818Z,8.90
2022-10-18T17:44:07.236Z,10.50
2022-10-18T17:46:33.771Z,8.90
2022-10-18T17:49:00.410Z,9.93
2022-10-18T17:51:26.846Z,8.68
2022-10-18T17:53:53.915Z,11.85
2022-10-18T17:56:20.398Z,7.90
2022-10-18T17:58:50.899Z,7.82
2022-10-18T18:01:20.477Z,6.43
2022-10-18T18:03:47.468Z,6.80
2022-10-18T18:06:28.946Z,11.18
2022-10-18T18:08:55.386Z,8.60
2022-10-18T18:11:21.788Z,15.48
2022-10-18T18:13:48.206Z,9.27
2022-10-18T18:16:23.857Z,8.45
2022-10-18T18:18:56.122Z,8.32
2022-10-18T18:21:23.310Z,9.40
2022-10-18T18:23:50.384Z,10.82
2022-10-18T18:26:21.794Z,9.80
2022-10-18T18:28:48.582Z,10.48
2022-10-18T18:31:20.805Z,9.25
2022-10-18T18:33:47.218Z,9.15
2022-10-18T18:36:13.636Z,9.48
2022-10-18T18:38:40.778Z,9.93
2022-10-18T18:41:11.857Z,8.32
2022-10-18T18:43:41.017Z,9.35
2022-10-18T18:46:08.710Z,9.95
2022-10-18T18:48:36.357Z,10.32
2022-10-18T18:51:04.624Z,9.87
2022-10-18T18:53:31.605Z,9.35
2022-10-18T18:56:06.337Z,10.18
2022-10-18T18:58:35.400Z,12.75
2022-10-18T19:01:29.984Z,11.00
2022-10-18T19:03:58.675Z,14.10
2022-10-18T19:06:30.473Z,12.23
2022-10-18T19:08:58.255Z,14.77
2022-10-18T19:11:24.691Z,16.27
2022-10-18T19:13:51.114Z,13.00
2022-10-18T19:16:40.182Z,13.73
2022-10-18T19:19:18.459Z,12.43
2022-10-18T19:21:56.683Z,11.02
2022-10-18T19:24:25.684Z,13.90
2022-10-18T19:26:57.767Z,11.57
2022-10-18T19:29:35.647Z,11.93
2022-10-18T19:32:04.899Z,13.15
2022-10-18T19:34:32.127Z,13.20
2022-10-18T19:36:58.586Z,10.23
2022-10-18T19:39:27.508Z,12.70
2022-10-18T19:41:56.178Z,11.03
2022-10-18T19:44:24.520Z,10.75
2022-10-18T19:46:50.992Z,10.68
2022-10-18T19:49:17.856Z,10.00
2022-10-18T19:51:44.710Z,11.50
2022-10-18T19:54:12.559Z,8.37
2022-10-18T19:56:39.787Z,13.32
2022-10-18T19:59:06.205Z,13.75
2022-10-18T20:01:33.153Z,9.90
2022-10-18T20:03:59.669Z,9.90
2022-10-18T20:06:26.450Z,11.13
2022-10-18T20:08:53.093Z,10.40
2022-10-18T20:11:22.864Z,11.77
2022-10-18T20:13:49.800Z,14.65
2022-10-18T20:16:17.858Z,12.13
2022-10-18T20:18:44.387Z,10.63
2022-10-18T20:21:13.451Z,11.98
2022-10-18T20:23:41.236Z,11.15
2022-10-18T20:26:15.467Z,13.05
2022-10-18T20:28:45.600Z,12.52
2022-10-18T20:31:14.394Z,13.53
2022-10-18T20:33:41.473Z,11.60
2022-10-18T20:36:15.894Z,16.58
2022-10-18T20:38:44.891Z,17.02
2022-10-18T20:41:17.308Z,12.02
2022-10-18T20:43:44.534Z,18.50
2022-10-18T20:46:11.541Z,11.93
2022-10-18T20:48:37.931Z,14.43
2022-10-18T20:51:06.656Z,15.93
2022-10-18T20:53:34.964Z,12.43
2022-10-18T20:56:09.089Z,11.67
2022-10-18T20:58:37.204Z,14.35
2022-10-18T21:01:07.573Z,14.63
2022-10-18T21:03:36.737Z,16.40
2022-10-18T21:06:12.638Z,17.10
2022-10-18T21:08:39.745Z,14.60
2022-10-18T21:11:06.730Z,12.38
2022-10-18T21:13:33.209Z,18.88
2022-10-18T21:16:00.997Z,15.70
2022-10-18T21:18:29.512Z,13.60
2022-10-18T21:21:05.988Z,14.70
2022-10-18T21:23:32.391Z,15.40
2022-10-18T21:25:58.810Z,12.43
2022-10-18T21:28:25.336Z,17.90
2022-10-18T21:30:51.769Z,17.90
2022-10-18T21:33:18.183Z,17.50
2022-10-18T21:35:44.528Z,16.13
2022-10-18T21:38:10.926Z,16.95
2022-10-18T21:40:37.805Z,17.27
2022-10-18T21:43:04.228Z,17.05
2022-10-18T21:45:30.669Z,18.23
2022-10-18T21:47:57.224Z,15.90
2022-10-18T21:50:23.669Z,17.25
2022-10-18T21:52:50.036Z,18.85
2022-10-18T21:55:16.472Z,19.10
2022-10-18T21:57:42.888Z,21.93
2022-10-18T22:00:10.027Z,13.82
2022-10-18T22:02:36.432Z,16.77
2022-10-18T22:05:03.828Z,18.00
2022-10-18T22:07:31.760Z,16.67
2022-10-18T22:09:58.356Z,18.23
2022-10-18T22:12:24.766Z,19.98
2022-10-18T22:14:51.163Z,19.98
2022-10-18T22:17:17.583Z,21.77
2022-10-18T22:19:44.002Z,19.00
2022-10-18T22:22:10.458Z,19.60
2022-10-18T22:24:36.891Z,23.02
2022-10-18T22:27:03.296Z,18.35
2022-10-18T22:29:29.698Z,17.20
2022-10-18T22:31:56.082Z,22.38
2022-10-18T22:34:26.724Z,20.13
2022-10-18T22:36:53.780Z,21.85
2022-10-18T22:39:20.188Z,22.70
2022-10-18T22:41:46.770Z,19.30
2022-10-18T22:44:14.713Z,19.38
2022-10-18T22:46:42.077Z,19.83
2022-10-18T22:49:08.609Z,16.25
2022-10-18T22:54:06.488Z,23.85
2022-10-18T22:56:33.155Z,17.50
2022-10-18T22:58:59.585Z,24.97
2022-10-18T23:01:25.991Z,26.63
2022-10-18T23:03:58.120Z,21.38
2022-10-18T23:06:27.317Z,23.25
2022-10-18T23:08:56.066Z,19.65
2022-10-18T23:11:23.349Z,17.20
2022-10-18T23:13:49.971Z,23.85
2022-10-18T23:16:17.134Z,20.92
2022-10-18T23:18:43.880Z,20.83
2022-10-18T23:21:12.690Z,24.85
2022-10-18T23:23:41.603Z,20.80
2022-10-18T23:26:20.044Z,26.33
2022-10-18T23:28:48.350Z,19.92
2022-10-18T23:31:27.431Z,24.90
2022-10-18T23:33:56.417Z,30.52
2022-10-18T23:36:23.031Z,25.67
2022-10-18T23:38:50.067Z,20.52
2022-10-18T23:41:17.754Z,21.13
2022-10-18T23:43:45.004Z,22.95
2022-10-18T23:46:12.478Z,22.55
2022-10-18T23:48:38.886Z,26.40
2022-10-18T23:51:06.305Z,24.05
2022-10-18T23:53:33.518Z,24.98
2022-10-18T23:56:02.897Z,23.98
2022-10-18T23:58:31.565Z,27.85
